sensor_id;sensor_type;location;lat;lon;timestamp;temperature;humidity
68433;DHT22;55412;51.350;17.056;2023-03-21T00:01:31;10.30;86.70
68433;DHT22;55412;51.350;17.056;2023-03-21T00:03:57;10.20;87.20
68433;DHT22;55412;51.350;17.056;2023-03-21T00:06:23;10.20;86.30
68433;DHT22;55412;51.350;17.056;2023-03-21T00:08:50;10.20;86.40
68433;DHT22;55412;51.350;17.056;2023-03-21T00:11:16;10.20;86.20
68433;DHT22;55412;51.350;17.056;2023-03-21T00:13:42;10.20;86.20
68433;DHT22;55412;51.350;17.056;2023-03-21T00:16:11;10.20;86.40
68433;DHT22;55412;51.350;17.056;2023-03-21T00:18:48;10.20;86.20
68433;DHT22;55412;51.350;17.056;2023-03-21T00:21:21;10.20;85.70
68433;DHT22;55412;51.350;17.056;2023-03-21T00:23:53;10.20;85.60
68433;DHT22;55412;51.350;17.056;2023-03-21T00:26:20;10.20;85.00
68433;DHT22;55412;51.350;17.056;2023-03-21T00:28:47;10.20;84.40
68433;DHT22;55412;51.350;17.056;2023-03-21T00:31:14;10.20;84.30
68433;DHT22;55412;51.350;17.056;2023-03-21T00:33:40;10.30;84.00
68433;DHT22;55412;51.350;17.056;2023-03-21T00:36:07;10.20;84.20
68433;DHT22;55412;51.350;17.056;2023-03-21T00:38:35;10.30;85.50
68433;DHT22;55412;51.350;17.056;2023-03-21T00:41:07;10.30;86.20
68433;DHT22;55412;51.350;17.056;2023-03-21T00:43:34;10.30;86.10
68433;DHT22;55412;51.350;17.056;2023-03-21T00:46:01;10.30;85.40
68433;DHT22;55412;51.350;17.056;2023-03-21T00:48:27;10.30;85.00
68433;DHT22;55412;51.350;17.056;2023-03-21T00:50:55;10.30;84.80
68433;DHT22;55412;51.350;17.056;2023-03-21T00:53:23;10.30;84.80
68433;DHT22;55412;51.350;17.056;2023-03-21T00:55:50;10.30;84.80
68433;DHT22;55412;51.350;17.056;2023-03-21T00:58:16;10.20;84.90
68433;DHT22;55412;51.350;17.056;2023-03-21T01:00:43;10.20;85.20
68433;DHT22;55412;51.350;17.056;2023-03-21T01:03:12;10.20;85.60
68433;DHT22;55412;51.350;17.056;2023-03-21T01:05:42;10.20;85.60
68433;DHT22;55412;51.350;17.056;2023-03-21T01:08:28;10.20;85.30
68433;DHT22;55412;51.350;17.056;2023-03-21T01:10:55;10.20;85.50
68433;DHT22;55412;51.350;17.056;2023-03-21T01:13:23;10.20;86.10
68433;DHT22;55412;51.350;17.056;2023-03-21T01:15:53;10.20;85.80
68433;DHT22;55412;51.350;17.056;2023-03-21T01:18:23;10.20;85.60
68433;DHT22;55412;51.350;17.056;2023-03-21T01:20:52;10.20;85.90
68433;DHT22;55412;51.350;17.056;2023-03-21T01:23:20;10.20;85.70
68433;DHT22;55412;51.350;17.056;2023-03-21T01:25:48;10.20;85.40
68433;DHT22;55412;51.350;17.056;2023-03-21T01:28:15;10.20;85.40
68433;DHT22;55412;51.350;17.056;2023-03-21T01:30:49;10.20;86.20
68433;DHT22;55412;51.350;17.056;2023-03-21T01:33:17;10.20;86.00
68433;DHT22;55412;51.350;17.056;2023-03-21T01:35:43;10.20;85.90
68433;DHT22;55412;51.350;17.056;2023-03-21T01:38:09;10.20;86.10
68433;DHT22;55412;51.350;17.056;2023-03-21T01:40:36;10.20;86.40
68433;DHT22;55412;51.350;17.056;2023-03-21T01:43:03;10.20;85.70
68433;DHT22;55412;51.350;17.056;2023-03-21T01:46:07;10.20;86.00
68433;DHT22;55412;51.350;17.056;2023-03-21T01:48:36;10.20;85.60
68433;DHT22;55412;51.350;17.056;2023-03-21T01:51:05;10.20;85.50
68433;DHT22;55412;51.350;17.056;2023-03-21T01:53:34;10.20;85.20
68433;DHT22;55412;51.350;17.056;2023-03-21T01:56:12;10.20;84.80
68433;DHT22;55412;51.350;17.056;2023-03-21T01:58:42;10.20;84.50
68433;DHT22;55412;51.350;17.056;2023-03-21T02:01:09;10.20;84.20
68433;DHT22;55412;51.350;17.056;2023-03-21T02:03:43;10.20;84.30
68433;DHT22;55412;51.350;17.056;2023-03-21T02:06:45;10.10;84.90
68433;DHT22;55412;51.350;17.056;2023-03-21T02:09:32;10.10;85.30
68433;DHT22;55412;51.350;17.056;2023-03-21T02:12:00;10.00;85.60
68433;DHT22;55412;51.350;17.056;2023-03-21T02:14:29;10.00;85.90
68433;DHT22;55412;51.350;17.056;2023-03-21T02:17:14;9.90;86.40
68433;DHT22;55412;51.350;17.056;2023-03-21T02:28:50;9.70;87.90
68433;DHT22;55412;51.350;17.056;2023-03-21T02:40:21;9.60;89.90
68433;DHT22;55412;51.350;17.056;2023-03-21T02:43:09;9.50;90.50
68433;DHT22;55412;51.350;17.056;2023-03-21T02:45:46;9.50;89.90
68433;DHT22;55412;51.350;17.056;2023-03-21T02:48:19;9.50;89.60
68433;DHT22;55412;51.350;17.056;2023-03-21T02:50:53;9.50;89.50
68433;DHT22;55412;51.350;17.056;2023-03-21T02:53:27;9.60;89.30
68433;DHT22;55412;51.350;17.056;2023-03-21T02:55:57;9.60;88.90
68433;DHT22;55412;51.350;17.056;2023-03-21T02:58:24;9.60;88.50
68433;DHT22;55412;51.350;17.056;2023-03-21T03:00:53;9.60;88.70
68433;DHT22;55412;51.350;17.056;2023-03-21T03:03:21;9.60;88.70
68433;DHT22;55412;51.350;17.056;2023-03-21T03:05:54;9.60;89.00
68433;DHT22;55412;51.350;17.056;2023-03-21T03:08:33;9.60;89.30
68433;DHT22;55412;51.350;17.056;2023-03-21T03:17:21;9.60;89.30
68433;DHT22;55412;51.350;17.056;2023-03-21T03:22:56;9.50;88.90
68433;DHT22;55412;51.350;17.056;2023-03-21T03:28:30;9.50;89.80
68433;DHT22;55412;51.350;17.056;2023-03-21T03:31:00;9.40;89.30
68433;DHT22;55412;51.350;17.056;2023-03-21T03:33:27;9.50;88.80
68433;DHT22;55412;51.350;17.056;2023-03-21T03:35:55;9.50;88.40
68433;DHT22;55412;51.350;17.056;2023-03-21T03:38:25;9.50;88.20
68433;DHT22;55412;51.350;17.056;2023-03-21T03:40:58;9.50;88.30
68433;DHT22;55412;51.350;17.056;2023-03-21T03:43:46;9.50;88.10
68433;DHT22;55412;51.350;17.056;2023-03-21T03:46:44;9.50;87.70
68433;DHT22;55412;51.350;17.056;2023-03-21T03:49:20;9.50;87.70
68433;DHT22;55412;51.350;17.056;2023-03-21T03:54:31;9.50;87.90
68433;DHT22;55412;51.350;17.056;2023-03-21T03:57:04;9.50;87.80
68433;DHT22;55412;51.350;17.056;2023-03-21T03:59:34;9.50;87.80
68433;DHT22;55412;51.350;17.056;2023-03-21T04:02:01;9.50;87.90
68433;DHT22;55412;51.350;17.056;2023-03-21T04:04:28;9.50;88.10
68433;DHT22;55412;51.350;17.056;2023-03-21T04:06:56;9.50;88.10
68433;DHT22;55412;51.350;17.056;2023-03-21T04:09:24;9.40;88.00
68433;DHT22;55412;51.350;17.056;2023-03-21T04:11:53;9.40;88.50
68433;DHT22;55412;51.350;17.056;2023-03-21T04:14:19;9.40;88.50
68433;DHT22;55412;51.350;17.056;2023-03-21T04:16:46;9.30;88.90
68433;DHT22;55412;51.350;17.056;2023-03-21T04:19:12;9.30;88.70
68433;DHT22;55412;51.350;17.056;2023-03-21T04:21:38;9.30;88.60
68433;DHT22;55412;51.350;17.056;2023-03-21T04:24:04;9.30;88.50
68433;DHT22;55412;51.350;17.056;2023-03-21T04:26:32;9.30;88.80
68433;DHT22;55412;51.350;17.056;2023-03-21T04:29:00;9.30;88.30
68433;DHT22;55412;51.350;17.056;2023-03-21T04:31:28;9.30;88.30
68433;DHT22;55412;51.350;17.056;2023-03-21T04:33:59;9.30;88.20
68433;DHT22;55412;51.350;17.056;2023-03-21T04:36:27;9.30;88.00
68433;DHT22;55412;51.350;17.056;2023-03-21T04:39:06;9.30;87.80
68433;DHT22;55412;51.350;17.056;2023-03-21T04:41:40;9.30;88.10
68433;DHT22;55412;51.350;17.056;2023-03-21T04:44:08;9.40;88.20
68433;DHT22;55412;51.350;17.056;2023-03-21T04:46:34;9.40;88.10
68433;DHT22;55412;51.350;17.056;2023-03-21T04:49:01;9.30;87.80
68433;DHT22;55412;51.350;17.056;2023-03-21T04:51:27;9.40;88.10
68433;DHT22;55412;51.350;17.056;2023-03-21T04:53:53;9.40;87.80
68433;DHT22;55412;51.350;17.056;2023-03-21T04:56:26;9.40;87.80
68433;DHT22;55412;51.350;17.056;2023-03-21T04:59:05;9.30;88.50
68433;DHT22;55412;51.350;17.056;2023-03-21T05:01:33;9.30;88.90
68433;DHT22;55412;51.350;17.056;2023-03-21T05:04:00;9.30;88.20
68433;DHT22;55412;51.350;17.056;2023-03-21T05:06:27;9.30;88.40
68433;DHT22;55412;51.350;17.056;2023-03-21T05:08:55;9.30;88.00
68433;DHT22;55412;51.350;17.056;2023-03-21T05:11:28;9.30;88.00
68433;DHT22;55412;51.350;17.056;2023-03-21T05:13:58;9.30;88.50
68433;DHT22;55412;51.350;17.056;2023-03-21T05:16:24;9.20;88.50
68433;DHT22;55412;51.350;17.056;2023-03-21T05:18:56;9.20;88.40
68433;DHT22;55412;51.350;17.056;2023-03-21T05:21:24;9.20;88.40
68433;DHT22;55412;51.350;17.056;2023-03-21T05:23:54;9.20;88.20
68433;DHT22;55412;51.350;17.056;2023-03-21T05:26:23;9.20;88.10
68433;DHT22;55412;51.350;17.056;2023-03-21T05:28:49;9.20;88.40
68433;DHT22;55412;51.350;17.056;2023-03-21T05:31:19;9.20;88.00
68433;DHT22;55412;51.350;17.056;2023-03-21T05:33:46;9.30;87.90
68433;DHT22;55412;51.350;17.056;2023-03-21T05:36:13;9.30;87.90
68433;DHT22;55412;51.350;17.056;2023-03-21T05:38:40;9.30;87.90
68433;DHT22;55412;51.350;17.056;2023-03-21T05:41:15;9.30;87.90
68433;DHT22;55412;51.350;17.056;2023-03-21T05:43:42;9.30;88.10
68433;DHT22;55412;51.350;17.056;2023-03-21T05:46:09;9.30;87.90
68433;DHT22;55412;51.350;17.056;2023-03-21T05:48:36;9.40;87.60
68433;DHT22;55412;51.350;17.056;2023-03-21T05:51:03;9.40;87.50
68433;DHT22;55412;51.350;17.056;2023-03-21T05:53:30;9.40;87.30
68433;DHT22;55412;51.350;17.056;2023-03-21T05:55:56;9.40;87.60
68433;DHT22;55412;51.350;17.056;2023-03-21T05:58:23;9.40;87.40
68433;DHT22;55412;51.350;17.056;2023-03-21T06:00:49;9.40;87.40
68433;DHT22;55412;51.350;17.056;2023-03-21T06:03:16;9.50;87.60
68433;DHT22;55412;51.350;17.056;2023-03-21T06:05:42;9.50;87.30
68433;DHT22;55412;51.350;17.056;2023-03-21T06:08:08;9.50;87.30
68433;DHT22;55412;51.350;17.056;2023-03-21T06:10:34;9.50;87.10
68433;DHT22;55412;51.350;17.056;2023-03-21T06:13:01;9.50;87.00
68433;DHT22;55412;51.350;17.056;2023-03-21T06:15:26;9.50;87.10
68433;DHT22;55412;51.350;17.056;2023-03-21T06:17:53;9.50;86.90
68433;DHT22;55412;51.350;17.056;2023-03-21T06:20:19;9.50;87.10
68433;DHT22;55412;51.350;17.056;2023-03-21T06:22:45;9.50;87.10
68433;DHT22;55412;51.350;17.056;2023-03-21T06:25:11;9.50;87.10
68433;DHT22;55412;51.350;17.056;2023-03-21T06:27:37;9.50;87.00
68433;DHT22;55412;51.350;17.056;2023-03-21T06:30:03;9.50;87.10
68433;DHT22;55412;51.350;17.056;2023-03-21T06:32:30;9.50;86.80
68433;DHT22;55412;51.350;17.056;2023-03-21T06:34:57;9.60;86.70
68433;DHT22;55412;51.350;17.056;2023-03-21T06:37:23;9.60;87.00
68433;DHT22;55412;51.350;17.056;2023-03-21T06:39:51;9.60;87.10
68433;DHT22;55412;51.350;17.056;2023-03-21T06:42:17;9.60;86.90
68433;DHT22;55412;51.350;17.056;2023-03-21T06:44:43;9.60;86.80
68433;DHT22;55412;51.350;17.056;2023-03-21T06:47:09;9.60;86.90
68433;DHT22;55412;51.350;17.056;2023-03-21T06:49:35;9.60;86.70
68433;DHT22;55412;51.350;17.056;2023-03-21T06:52:01;9.60;87.10
68433;DHT22;55412;51.350;17.056;2023-03-21T06:54:28;9.70;86.80
68433;DHT22;55412;51.350;17.056;2023-03-21T06:56:54;9.70;86.80
68433;DHT22;55412;51.350;17.056;2023-03-21T06:59:21;9.70;86.60
68433;DHT22;55412;51.350;17.056;2023-03-21T07:01:47;9.70;86.50
68433;DHT22;55412;51.350;17.056;2023-03-21T07:04:13;9.70;86.40
68433;DHT22;55412;51.350;17.056;2023-03-21T07:06:39;9.70;86.30
68433;DHT22;55412;51.350;17.056;2023-03-21T07:09:05;9.80;86.20
68433;DHT22;55412;51.350;17.056;2023-03-21T07:11:32;9.80;86.10
68433;DHT22;55412;51.350;17.056;2023-03-21T07:13:59;9.80;85.90
68433;DHT22;55412;51.350;17.056;2023-03-21T07:16:26;9.90;85.80
68433;DHT22;55412;51.350;17.056;2023-03-21T07:18:52;9.90;85.70
68433;DHT22;55412;51.350;17.056;2023-03-21T07:21:19;9.90;85.70
68433;DHT22;55412;51.350;17.056;2023-03-21T07:23:45;10.00;85.30
68433;DHT22;55412;51.350;17.056;2023-03-21T07:26:12;10.00;85.10
68433;DHT22;55412;51.350;17.056;2023-03-21T07:28:40;10.00;85.00
68433;DHT22;55412;51.350;17.056;2023-03-21T07:31:06;10.10;84.90
68433;DHT22;55412;51.350;17.056;2023-03-21T07:33:33;10.10;84.70
68433;DHT22;55412;51.350;17.056;2023-03-21T07:36:01;10.20;84.50
68433;DHT22;55412;51.350;17.056;2023-03-21T07:38:27;10.20;84.40
68433;DHT22;55412;51.350;17.056;2023-03-21T07:40:58;10.30;84.30
68433;DHT22;55412;51.350;17.056;2023-03-21T07:43:25;10.30;84.20
68433;DHT22;55412;51.350;17.056;2023-03-21T07:45:55;10.30;84.10
68433;DHT22;55412;51.350;17.056;2023-03-21T07:48:22;10.40;83.90
68433;DHT22;55412;51.350;17.056;2023-03-21T07:50:49;10.50;83.80
68433;DHT22;55412;51.350;17.056;2023-03-21T07:53:15;10.50;83.60
68433;DHT22;55412;51.350;17.056;2023-03-21T07:55:41;10.50;83.50
68433;DHT22;55412;51.350;17.056;2023-03-21T07:58:07;10.50;83.30
68433;DHT22;55412;51.350;17.056;2023-03-21T08:00:33;10.50;83.10
68433;DHT22;55412;51.350;17.056;2023-03-21T08:03:00;10.50;82.80
68433;DHT22;55412;51.350;17.056;2023-03-21T08:05:28;10.50;82.40
68433;DHT22;55412;51.350;17.056;2023-03-21T08:07:58;10.50;81.70
68433;DHT22;55412;51.350;17.056;2023-03-21T08:10:25;10.50;81.50
68433;DHT22;55412;51.350;17.056;2023-03-21T08:12:52;10.50;81.20
68433;DHT22;55412;51.350;17.056;2023-03-21T08:15:18;10.50;80.50
68433;DHT22;55412;51.350;17.056;2023-03-21T08:17:44;10.50;80.90
68433;DHT22;55412;51.350;17.056;2023-03-21T08:20:14;10.50;81.00
68433;DHT22;55412;51.350;17.056;2023-03-21T08:22:42;10.50;81.00
68433;DHT22;55412;51.350;17.056;2023-03-21T08:25:10;10.60;80.70
68433;DHT22;55412;51.350;17.056;2023-03-21T08:27:42;10.50;80.70
68433;DHT22;55412;51.350;17.056;2023-03-21T08:30:10;10.50;80.60
68433;DHT22;55412;51.350;17.056;2023-03-21T08:32:38;10.50;80.70
68433;DHT22;55412;51.350;17.056;2023-03-21T08:35:10;10.50;80.70
68433;DHT22;55412;51.350;17.056;2023-03-21T08:37:38;10.50;80.70
68433;DHT22;55412;51.350;17.056;2023-03-21T08:40:07;10.50;80.50
68433;DHT22;55412;51.350;17.056;2023-03-21T08:42:37;10.50;80.60
68433;DHT22;55412;51.350;17.056;2023-03-21T08:45:04;10.50;80.70
68433;DHT22;55412;51.350;17.056;2023-03-21T08:47:31;10.50;80.40
68433;DHT22;55412;51.350;17.056;2023-03-21T08:49:58;10.50;80.60
68433;DHT22;55412;51.350;17.056;2023-03-21T08:52:24;10.50;80.70
68433;DHT22;55412;51.350;17.056;2023-03-21T08:54:52;10.50;80.70
68433;DHT22;55412;51.350;17.056;2023-03-21T08:57:18;10.50;80.60
68433;DHT22;55412;51.350;17.056;2023-03-21T08:59:45;10.50;81.00
68433;DHT22;55412;51.350;17.056;2023-03-21T09:02:14;10.50;80.40
68433;DHT22;55412;51.350;17.056;2023-03-21T09:04:41;10.50;80.40
68433;DHT22;55412;51.350;17.056;2023-03-21T09:07:08;10.50;80.40
68433;DHT22;55412;51.350;17.056;2023-03-21T09:09:37;10.50;80.40
68433;DHT22;55412;51.350;17.056;2023-03-21T09:12:04;10.60;80.40
68433;DHT22;55412;51.350;17.056;2023-03-21T09:14:30;10.60;79.90
68433;DHT22;55412;51.350;17.056;2023-03-21T09:16:56;10.60;80.00
68433;DHT22;55412;51.350;17.056;2023-03-21T09:19:22;10.60;79.90
68433;DHT22;55412;51.350;17.056;2023-03-21T09:21:48;10.60;79.70
68433;DHT22;55412;51.350;17.056;2023-03-21T09:24:15;10.60;79.40
68433;DHT22;55412;51.350;17.056;2023-03-21T09:26:42;10.60;79.50
68433;DHT22;55412;51.350;17.056;2023-03-21T09:29:09;10.60;79.40
68433;DHT22;55412;51.350;17.056;2023-03-21T09:31:35;10.60;79.10
68433;DHT22;55412;51.350;17.056;2023-03-21T09:34:01;10.60;79.20
68433;DHT22;55412;51.350;17.056;2023-03-21T09:36:28;10.60;79.10
68433;DHT22;55412;51.350;17.056;2023-03-21T09:38:59;10.60;78.90
68433;DHT22;55412;51.350;17.056;2023-03-21T09:47:44;11.10;79.40
68433;DHT22;55412;51.350;17.056;2023-03-21T09:50:24;11.80;78.80
68433;DHT22;55412;51.350;17.056;2023-03-21T09:53:12;12.40;76.10
68433;DHT22;55412;51.350;17.056;2023-03-21T09:55:43;13.00;76.10
68433;DHT22;55412;51.350;17.056;2023-03-21T09:58:36;14.00;74.40
68433;DHT22;55412;51.350;17.056;2023-03-21T10:01:20;14.70;70.90
68433;DHT22;55412;51.350;17.056;2023-03-21T10:04:10;15.30;70.00
68433;DHT22;55412;51.350;17.056;2023-03-21T10:06:39;15.50;66.80
68433;DHT22;55412;51.350;17.056;2023-03-21T10:12:01;15.30;66.40
68433;DHT22;55412;51.350;17.056;2023-03-21T10:14:41;15.30;65.70
68433;DHT22;55412;51.350;17.056;2023-03-21T10:17:43;15.10;65.50
68433;DHT22;55412;51.350;17.056;2023-03-21T10:20:35;14.90;64.90
68433;DHT22;55412;51.350;17.056;2023-03-21T10:23:05;14.70;65.70
68433;DHT22;55412;51.350;17.056;2023-03-21T10:25:39;14.50;65.30
68433;DHT22;55412;51.350;17.056;2023-03-21T10:28:16;14.40;64.40
68433;DHT22;55412;51.350;17.056;2023-03-21T10:30:50;14.20;65.30
68433;DHT22;55412;51.350;17.056;2023-03-21T10:33:33;14.10;64.90
68433;DHT22;55412;51.350;17.056;2023-03-21T10:36:30;13.90;65.40
68433;DHT22;55412;51.350;17.056;2023-03-21T10:39:03;13.70;65.90
68433;DHT22;55412;51.350;17.056;2023-03-21T10:41:31;13.70;66.60
68433;DHT22;55412;51.350;17.056;2023-03-21T10:44:12;13.60;66.90
68433;DHT22;55412;51.350;17.056;2023-03-21T10:47:09;13.60;67.40
68433;DHT22;55412;51.350;17.056;2023-03-21T10:49:36;13.60;67.00
68433;DHT22;55412;51.350;17.056;2023-03-21T10:52:07;13.50;66.30
68433;DHT22;55412;51.350;17.056;2023-03-21T10:54:34;13.50;66.70
68433;DHT22;55412;51.350;17.056;2023-03-21T10:57:09;13.50;66.80
68433;DHT22;55412;51.350;17.056;2023-03-21T10:59:51;13.50;67.10
68433;DHT22;55412;51.350;17.056;2023-03-21T11:05:04;13.40;66.90
68433;DHT22;55412;51.350;17.056;2023-03-21T11:07:34;13.40;67.00
68433;DHT22;55412;51.350;17.056;2023-03-21T11:10:14;13.40;66.60
68433;DHT22;55412;51.350;17.056;2023-03-21T11:12:46;13.30;66.20
68433;DHT22;55412;51.350;17.056;2023-03-21T11:15:33;13.20;66.90
68433;DHT22;55412;51.350;17.056;2023-03-21T11:18:23;13.20;67.30
68433;DHT22;55412;51.350;17.056;2023-03-21T11:20:56;13.10;67.00
68433;DHT22;55412;51.350;17.056;2023-03-21T11:23:28;13.10;66.90
68433;DHT22;55412;51.350;17.056;2023-03-21T11:25:58;13.00;66.70
68433;DHT22;55412;51.350;17.056;2023-03-21T11:28:32;13.00;66.40
68433;DHT22;55412;51.350;17.056;2023-03-21T11:31:03;12.90;66.80
68433;DHT22;55412;51.350;17.056;2023-03-21T11:33:54;12.90;66.50
68433;DHT22;55412;51.350;17.056;2023-03-21T11:38:50;12.70;67.00
68433;DHT22;55412;51.350;17.056;2023-03-21T11:41:27;12.70;66.70
68433;DHT22;55412;51.350;17.056;2023-03-21T11:43:56;12.60;66.60
68433;DHT22;55412;51.350;17.056;2023-03-21T11:46:24;12.60;66.50
68433;DHT22;55412;51.350;17.056;2023-03-21T11:48:55;12.50;66.30
68433;DHT22;55412;51.350;17.056;2023-03-21T11:54:47;12.40;66.90
68433;DHT22;55412;51.350;17.056;2023-03-21T11:57:48;12.30;67.50
68433;DHT22;55412;51.350;17.056;2023-03-21T12:00:29;12.20;67.90
68433;DHT22;55412;51.350;17.056;2023-03-21T12:05:59;12.10;68.20
68433;DHT22;55412;51.350;17.056;2023-03-21T12:26:11;11.80;69.40
68433;DHT22;55412;51.350;17.056;2023-03-21T12:31:51;11.80;69.70
68433;DHT22;55412;51.350;17.056;2023-03-21T12:43:20;11.90;69.50
68433;DHT22;55412;51.350;17.056;2023-03-21T12:48:46;11.90;69.70
68433;DHT22;55412;51.350;17.056;2023-03-21T12:51:18;12.00;69.60
68433;DHT22;55412;51.350;17.056;2023-03-21T12:56:59;12.10;69.50
68433;DHT22;55412;51.350;17.056;2023-03-21T12:59:37;12.10;69.10
68433;DHT22;55412;51.350;17.056;2023-03-21T13:02:31;12.10;68.90
68433;DHT22;55412;51.350;17.056;2023-03-21T13:05:21;12.10;68.90
68433;DHT22;55412;51.350;17.056;2023-03-21T13:08:14;12.10;69.10
68433;DHT22;55412;51.350;17.056;2023-03-21T13:10:47;12.20;68.70
68433;DHT22;55412;51.350;17.056;2023-03-21T13:19:17;12.20;68.60
68433;DHT22;55412;51.350;17.056;2023-03-21T13:21:59;12.20;68.30
68433;DHT22;55412;51.350;17.056;2023-03-21T13:24:42;12.20;68.60
68433;DHT22;55412;51.350;17.056;2023-03-21T13:27:32;12.30;68.70
68433;DHT22;55412;51.350;17.056;2023-03-21T13:32:41;12.40;68.70
68433;DHT22;55412;51.350;17.056;2023-03-21T13:35:15;12.40;68.60
68433;DHT22;55412;51.350;17.056;2023-03-21T13:38:02;12.50;68.30
68433;DHT22;55412;51.350;17.056;2023-03-21T13:40:40;12.50;68.10
68433;DHT22;55412;51.350;17.056;2023-03-21T13:43:42;12.50;67.60
68433;DHT22;55412;51.350;17.056;2023-03-21T13:49:00;12.40;66.90
68433;DHT22;55412;51.350;17.056;2023-03-21T13:54:52;12.40;67.40
68433;DHT22;55412;51.350;17.056;2023-03-21T14:00:13;12.40;67.40
68433;DHT22;55412;51.350;17.056;2023-03-21T14:03:11;12.40;67.10
68433;DHT22;55412;51.350;17.056;2023-03-21T14:05:38;12.40;66.40
68433;DHT22;55412;51.350;17.056;2023-03-21T14:08:07;12.40;66.70
68433;DHT22;55412;51.350;17.056;2023-03-21T14:10:38;12.40;67.00
68433;DHT22;55412;51.350;17.056;2023-03-21T14:13:08;12.50;67.00
68433;DHT22;55412;51.350;17.056;2023-03-21T14:16:05;12.50;66.80
68433;DHT22;55412;51.350;17.056;2023-03-21T14:18:42;12.60;66.80
68433;DHT22;55412;51.350;17.056;2023-03-21T14:21:22;12.50;66.50
68433;DHT22;55412;51.350;17.056;2023-03-21T14:24:06;12.60;66.60
68433;DHT22;55412;51.350;17.056;2023-03-21T14:26:41;12.60;66.30
68433;DHT22;55412;51.350;17.056;2023-03-21T14:29:30;12.60;66.40
68433;DHT22;55412;51.350;17.056;2023-03-21T14:31:59;12.60;66.10
68433;DHT22;55412;51.350;17.056;2023-03-21T14:34:31;12.70;66.20
68433;DHT22;55412;51.350;17.056;2023-03-21T14:36:58;12.70;65.30
68433;DHT22;55412;51.350;17.056;2023-03-21T14:39:30;12.70;65.70
68433;DHT22;55412;51.350;17.056;2023-03-21T14:42:04;12.70;64.00
68433;DHT22;55412;51.350;17.056;2023-03-21T14:44:36;12.70;64.30
68433;DHT22;55412;51.350;17.056;2023-03-21T14:47:19;12.70;64.10
68433;DHT22;55412;51.350;17.056;2023-03-21T14:49:49;12.70;64.00
68433;DHT22;55412;51.350;17.056;2023-03-21T14:52:40;12.60;63.50
68433;DHT22;55412;51.350;17.056;2023-03-21T14:55:13;12.60;64.00
68433;DHT22;55412;51.350;17.056;2023-03-21T14:57:41;12.60;64.80
68433;DHT22;55412;51.350;17.056;2023-03-21T15:00:15;12.70;64.80
68433;DHT22;55412;51.350;17.056;2023-03-21T15:02:46;12.60;64.50
68433;DHT22;55412;51.350;17.056;2023-03-21T15:05:22;12.60;64.40
68433;DHT22;55412;51.350;17.056;2023-03-21T15:07:57;12.60;64.40
68433;DHT22;55412;51.350;17.056;2023-03-21T15:10:30;12.60;64.50
68433;DHT22;55412;51.350;17.056;2023-03-21T15:13:01;12.60;64.60
68433;DHT22;55412;51.350;17.056;2023-03-21T15:15:41;12.70;64.30
68433;DHT22;55412;51.350;17.056;2023-03-21T15:18:12;12.60;64.50
68433;DHT22;55412;51.350;17.056;2023-03-21T15:20:40;12.60;64.40
68433;DHT22;55412;51.350;17.056;2023-03-21T15:23:27;12.70;64.60
68433;DHT22;55412;51.350;17.056;2023-03-21T15:26:03;12.60;64.60
68433;DHT22;55412;51.350;17.056;2023-03-21T15:28:32;12.60;64.70
68433;DHT22;55412;51.350;17.056;2023-03-21T15:31:00;12.60;64.90
68433;DHT22;55412;51.350;17.056;2023-03-21T15:33:26;12.70;64.70
68433;DHT22;55412;51.350;17.056;2023-03-21T15:35:57;12.60;64.40
68433;DHT22;55412;51.350;17.056;2023-03-21T15:38:42;12.70;64.80
68433;DHT22;55412;51.350;17.056;2023-03-21T15:43:47;12.70;64.90
68433;DHT22;55412;51.350;17.056;2023-03-21T15:46:45;12.70;65.00
68433;DHT22;55412;51.350;17.056;2023-03-21T15:51:50;12.70;64.80
68433;DHT22;55412;51.350;17.056;2023-03-21T15:54:21;12.70;64.60
68433;DHT22;55412;51.350;17.056;2023-03-21T15:56:55;12.70;64.50
68433;DHT22;55412;51.350;17.056;2023-03-21T15:59:29;12.70;64.20
68433;DHT22;55412;51.350;17.056;2023-03-21T16:01:58;12.70;64.70
68433;DHT22;55412;51.350;17.056;2023-03-21T16:04:24;12.60;64.00
68433;DHT22;55412;51.350;17.056;2023-03-21T16:06:56;12.60;63.10
68433;DHT22;55412;51.350;17.056;2023-03-21T16:09:24;12.50;62.60
68433;DHT22;55412;51.350;17.056;2023-03-21T16:11:52;12.40;63.00
68433;DHT22;55412;51.350;17.056;2023-03-21T16:14:19;12.30;63.50
68433;DHT22;55412;51.350;17.056;2023-03-21T16:16:47;12.30;63.60
68433;DHT22;55412;51.350;17.056;2023-03-21T16:19:14;12.30;63.70
68433;DHT22;55412;51.350;17.056;2023-03-21T16:21:40;12.30;63.30
68433;DHT22;55412;51.350;17.056;2023-03-21T16:24:08;12.10;62.80
68433;DHT22;55412;51.350;17.056;2023-03-21T16:26:40;12.10;63.70
68433;DHT22;55412;51.350;17.056;2023-03-21T16:29:12;12.00;63.60
68433;DHT22;55412;51.350;17.056;2023-03-21T16:31:39;12.00;64.30
68433;DHT22;55412;51.350;17.056;2023-03-21T16:34:06;12.00;64.40
68433;DHT22;55412;51.350;17.056;2023-03-21T16:36:35;12.00;64.60
68433;DHT22;55412;51.350;17.056;2023-03-21T16:39:20;12.00;64.90
68433;DHT22;55412;51.350;17.056;2023-03-21T16:41:47;12.00;65.00
68433;DHT22;55412;51.350;17.056;2023-03-21T16:44:13;12.00;65.00
68433;DHT22;55412;51.350;17.056;2023-03-21T16:46:40;12.00;65.20
68433;DHT22;55412;51.350;17.056;2023-03-21T16:49:21;12.00;65.30
68433;DHT22;55412;51.350;17.056;2023-03-21T16:51:49;12.00;65.40
68433;DHT22;55412;51.350;17.056;2023-03-21T16:54:16;12.00;65.40
68433;DHT22;55412;51.350;17.056;2023-03-21T16:56:45;12.00;65.60
68433;DHT22;55412;51.350;17.056;2023-03-21T16:59:13;11.90;65.70
68433;DHT22;55412;51.350;17.056;2023-03-21T17:01:40;11.90;65.80
68433;DHT22;55412;51.350;17.056;2023-03-21T17:04:11;11.90;65.90
68433;DHT22;55412;51.350;17.056;2023-03-21T17:06:44;11.90;65.80
68433;DHT22;55412;51.350;17.056;2023-03-21T17:09:13;11.90;66.10
68433;DHT22;55412;51.350;17.056;2023-03-21T17:11:40;11.80;66.40
68433;DHT22;55412;51.350;17.056;2023-03-21T17:14:08;11.80;66.90
68433;DHT22;55412;51.350;17.056;2023-03-21T17:16:36;11.80;67.40
68433;DHT22;55412;51.350;17.056;2023-03-21T17:19:25;11.70;67.60
68433;DHT22;55412;51.350;17.056;2023-03-21T17:21:52;11.70;67.60
68433;DHT22;55412;51.350;17.056;2023-03-21T17:24:19;11.60;67.60
68433;DHT22;55412;51.350;17.056;2023-03-21T17:26:45;11.60;67.80
68433;DHT22;55412;51.350;17.056;2023-03-21T17:29:13;11.50;67.80
68433;DHT22;55412;51.350;17.056;2023-03-21T17:31:39;11.50;68.10
68433;DHT22;55412;51.350;17.056;2023-03-21T17:34:06;11.40;68.10
68433;DHT22;55412;51.350;17.056;2023-03-21T17:36:35;11.40;68.20
68433;DHT22;55412;51.350;17.056;2023-03-21T17:39:08;11.40;68.20